Time;durP1;ratioP1;P1;durP2;ratioP2;P2;SDS_P1;SDS_P2;PMS_P1;PMS_P2;Temp;Humidity;BMP_temperature;BMP_pressure;BME280_temperature;BME280_humidity;BME280_pressure;Samples;Min_cycle;Max_cycle;Signal;HPM_P1;HPM_P2
2022/08/23 00:02:09;;;;;;;48.13;45.43;;;;;;;18.49;60.53;96611.09;5091741;28;20572;-58
2022/08/23 00:04:40;;;;;;;51.28;48.22;;;;;;;18.35;61.01;96612.00;5073417;28;20252;-58
2022/08/23 00:07:09;;;;;;;54.10;50.95;;;;;;;18.37;60.80;96607.22;5091827;28;20172;-56
2022/08/23 00:09:34;;;;;;;58.37;55.13;;;;;;;18.49;60.59;96605.00;5092404;28;20172;-58
2022/08/23 00:12:12;;;;;;;60.57;57.07;;;;;;;18.38;60.84;96611.47;5091834;28;20208;-58
2022/08/23 00:14:42;;;;;;;64.50;60.83;;;;;;;18.52;60.46;96607.88;5092400;28;20616;-58
2022/08/23 00:17:08;;;;;;;74.27;69.97;;;;;;;18.62;60.10;96604.31;5092402;28;20184;-57
2022/08/23 00:19:35;;;;;;;67.47;63.75;;;;;;;18.32;61.13;96608.06;5091492;28;20613;-58
2022/08/23 00:22:00;;;;;;;59.23;55.73;;;;;;;18.28;61.48;96605.16;5091881;28;20204;-58
2022/08/23 00:24:26;;;;;;;58.17;54.90;;;;;;;18.30;61.48;96602.25;5092024;28;20193;-58
2022/08/23 00:26:55;;;;;;;45.17;42.47;;;;;;;18.15;62.07;96602.38;5091979;28;20268;-58
2022/08/23 00:29:24;;;;;;;38.17;36.03;;;;;;;18.23;61.82;96599.13;5092060;28;20186;-58
2022/08/23 00:31:51;;;;;;;27.03;25.60;;;;;;;18.34;61.52;96605.91;5089585;28;20830;-58
2022/08/23 00:34:16;;;;;;;25.53;24.10;;;;;;;18.22;61.68;96598.31;5092340;28;20188;-55
2022/08/23 00:36:43;;;;;;;27.67;26.07;;;;;;;18.14;62.22;96595.50;5091812;28;20531;-55
2022/08/23 00:39:10;;;;;;;39.50;37.25;;;;;;;18.16;62.12;96603.97;5092338;28;20177;-53
2022/08/23 00:41:36;;;;;;;49.13;46.47;;;;;;;18.12;62.64;96601.06;5091762;28;20187;-54
2022/08/23 00:49:39;;;;;;;60.13;56.80;;;;;;;17.91;63.25;96599.66;5091904;28;20223;-58
2022/08/23 00:52:12;;;;;;;56.53;53.40;;;;;;;17.98;62.90;96594.84;5097490;28;20680;-57
2022/08/23 00:54:40;;;;;;;54.43;51.33;;;;;;;18.02;63.12;96592.41;5091037;28;20180;-59
2022/08/23 00:57:10;;;;;;;62.73;59.13;;;;;;;17.91;63.46;96591.69;5091513;28;20173;-57
2022/08/23 00:59:35;;;;;;;69.07;65.10;;;;;;;17.97;63.57;96584.50;5091366;28;20173;-58
2022/08/23 01:02:02;;;;;;;83.00;78.27;;;;;;;17.94;63.54;96585.06;5091140;28;20204;-58
2022/08/23 01:04:31;;;;;;;92.80;87.57;;;;;;;17.76;64.30;96589.97;5091492;28;20188;-57
2022/08/23 01:07:26;;;;;;;107.73;101.97;;;;;;;17.92;63.88;96595.94;5091528;28;20208;-59
2022/08/23 01:09:56;;;;;;;126.67;119.73;;;;;;;17.93;63.64;96586.94;5091430;28;20181;-59
2022/08/23 01:12:29;;;;;;;140.53;132.90;;;;;;;17.76;64.43;96592.63;5074961;28;20605;-59
2022/08/23 01:15:02;;;;;;;149.07;141.27;;;;;;;17.83;63.99;96585.13;5091272;28;20188;-59
2022/08/23 01:17:34;;;;;;;147.43;139.50;;;;;;;17.78;64.49;96585.16;5091434;28;20177;-59
2022/08/23 01:20:06;;;;;;;139.30;132.07;;;;;;;17.81;64.14;96589.94;5073232;28;20184;-58
2022/08/23 01:22:50;;;;;;;123.03;116.47;;;;;;;17.76;64.68;96592.63;5091046;28;20200;-59
2022/08/23 01:25:20;;;;;;;85.80;81.17;;;;;;;17.82;64.65;96598.69;5091296;28;20180;-58
2022/08/23 01:27:45;;;;;;;66.60;62.90;;;;;;;17.81;64.88;96600.53;5091268;28;20230;-59
2022/08/23 01:30:14;;;;;;;51.10;48.17;;;;;;;17.75;65.21;96595.53;5089592;28;20555;-58
2022/08/23 01:32:46;;;;;;;38.87;36.67;;;;;;;17.56;65.78;96598.03;5093923;28;20285;-58
2022/08/23 01:35:12;;;;;;;51.23;48.30;;;;;;;17.63;66.04;96600.41;5094983;28;20181;-59
2022/08/23 01:37:39;;;;;;;48.23;45.53;;;;;;;17.48;66.84;96600.47;5095117;28;20173;-59
2022/08/23 01:40:06;;;;;;;46.87;44.17;;;;;;;17.46;66.76;96596.22;5094737;28;20654;-59
2022/08/23 01:42:31;;;;;;;58.27;54.83;;;;;;;17.50;66.92;96598.34;5095040;28;20705;-59
2022/08/23 01:44:57;;;;;;;60.70;57.23;;;;;;;17.55;66.61;96593.81;5094911;28;20267;-59
2022/08/23 01:47:23;;;;;;;64.33;60.60;;;;;;;17.54;66.72;96594.06;5094645;28;20218;-59
2022/08/23 01:49:48;;;;;;;79.63;75.17;;;;;;;17.50;66.38;96598.34;5094477;28;20173;-57
2022/08/23 01:52:14;;;;;;;108.80;102.40;;;;;;;17.45;67.31;96599.16;5080465;28;20272;-59
2022/08/23 01:54:40;;;;;;;134.07;126.83;;;;;;;17.36;67.54;96598.16;5092546;28;20573;-59
2022/08/23 01:57:06;;;;;;;138.83;131.33;;;;;;;17.19;68.22;96603.81;5094682;28;20173;-58
2022/08/23 01:59:32;;;;;;;145.30;137.40;;;;;;;17.25;68.22;96599.28;5094468;28;20175;-58
2022/08/23 02:01:58;;;;;;;141.47;133.63;;;;;;;17.28;67.86;96598.72;5093907;28;20211;-56
2022/08/23 02:04:24;;;;;;;131.60;124.37;;;;;;;17.22;67.78;96600.59;5094580;28;20176;-56
2022/08/23 02:06:49;;;;;;;128.07;120.97;;;;;;;17.28;67.46;96607.47;5094163;28;20168;-57
2022/08/23 02:09:15;;;;;;;126.90;120.07;;;;;;;17.25;67.68;96609.88;5094158;28;20177;-56
2022/08/23 02:11:41;;;;;;;131.43;124.30;;;;;;;17.09;68.14;96605.72;5093983;28;20291;-58
2022/08/23 02:14:13;;;;;;;135.23;128.00;;;;;;;17.19;67.87;96603.00;5075693;28;20191;-58
2022/08/23 02:16:43;;;;;;;134.33;126.93;;;;;;;17.25;67.67;96608.03;5094286;28;20230;-55
2022/08/23 02:19:11;;;;;;;127.87;121.20;;;;;;;17.21;67.97;96614.94;5094217;28;20177;-58
2022/08/23 02:21:38;;;;;;;128.57;121.80;;;;;;;17.15;68.27;96607.28;5093988;28;20276;-58
2022/08/23 02:24:06;;;;;;;124.27;117.50;;;;;;;17.12;68.16;96611.25;5093939;28;20180;-58
2022/08/23 02:26:35;;;;;;;137.37;130.17;;;;;;;16.99;68.47;96609.22;5075996;28;20203;-57
2022/08/23 02:29:00;;;;;;;135.77;128.70;;;;;;;17.10;68.41;96605.44;5094046;28;20188;-57
2022/08/23 02:31:26;;;;;;;132.67;126.00;;;;;;;16.98;68.86;96611.06;5091737;28;20235;-56
2022/08/23 02:33:51;;;;;;;121.60;115.33;;;;;;;16.97;68.73;96609.47;5093946;28;20559;-57
2022/08/23 02:36:17;;;;;;;103.83;98.33;;;;;;;16.88;69.25;96608.47;5094352;28;20183;-58
2022/08/23 02:38:42;;;;;;;100.33;95.03;;;;;;;16.84;69.47;96614.53;5094451;28;20251;-57
2022/08/23 02:41:09;;;;;;;91.53;86.57;;;;;;;16.76;69.93;96615.09;5093129;28;20251;-57
2022/08/23 02:43:36;;;;;;;65.90;62.27;;;;;;;16.89;69.50;96622.47;5093465;28;20741;-57
2022/08/23 02:46:05;;;;;;;63.93;60.37;;;;;;;16.81;69.81;96620.38;5093921;28;20176;-57
2022/08/23 02:48:32;;;;;;;62.20;58.67;;;;;;;16.72;69.84;96612.19;5075354;28;20194;-59
2022/08/23 02:51:06;;;;;;;53.87;50.57;;;;;;;16.60;70.66;96617.81;5088502;28;20189;-59
2022/08/23 02:53:32;;;;;;;56.80;53.20;;;;;;;16.87;69.37;96614.81;5065238;28;20286;-60
2022/08/23 02:55:58;;;;;;;54.90;51.67;;;;;;;16.69;70.04;96617.25;5093742;28;20180;-59
2022/08/23 02:58:24;;;;;;;58.57;55.23;;;;;;;16.52;70.57;96614.88;5093337;28;20264;-59
2022/08/23 03:00:51;;;;;;;60.77;56.97;;;;;;;16.85;69.03;96621.44;5093190;28;20191;-57
2022/08/23 03:03:17;;;;;;;65.50;61.67;;;;;;;16.67;69.63;96620.16;5093072;28;20202;-59
2022/08/23 03:05:44;;;;;;;64.50;60.70;;;;;;;16.72;69.71;96622.78;5093497;28;20634;-59
2022/08/23 03:08:09;;;;;;;71.50;67.47;;;;;;;16.78;69.19;96621.69;5093426;28;20180;-57
2022/08/23 03:10:37;;;;;;;76.00;71.70;;;;;;;16.83;68.75;96623.56;5093053;28;20241;-59
2022/08/23 03:13:02;;;;;;;82.97;78.17;;;;;;;16.87;68.76;96617.47;5092752;28;20254;-59
2022/08/23 03:15:28;;;;;;;85.07;80.37;;;;;;;16.75;68.81;96619.59;5093112;28;20184;-58
2022/08/23 03:17:53;;;;;;;86.73;81.90;;;;;;;16.81;68.80;96615.88;5093063;28;20184;-59
2022/08/23 03:20:19;;;;;;;89.70;84.80;;;;;;;16.83;69.01;96616.38;5093027;28;20180;-58
2022/08/23 03:22:44;;;;;;;75.37;71.17;;;;;;;16.88;68.33;96627.00;5092975;28;20207;-58
2022/08/23 03:25:10;;;;;;;68.93;65.07;;;;;;;16.86;68.13;96628.31;5076208;28;20629;-59
2022/08/23 03:27:35;;;;;;;66.97;63.17;;;;;;;16.91;67.54;96623.00;5092893;28;20216;-59
2022/08/23 03:30:01;;;;;;;65.23;61.27;;;;;;;16.95;67.79;96619.53;5092700;28;20559;-58
2022/08/23 03:32:26;;;;;;;60.40;56.87;;;;;;;16.99;67.44;96625.88;5090227;28;20236;-59
2022/08/23 03:34:52;;;;;;;60.90;57.40;;;;;;;16.96;67.55;96623.75;5092601;28;20180;-59
2022/08/23 03:37:18;;;;;;;58.27;55.07;;;;;;;16.84;68.08;96622.47;5092678;28;20177;-58
2022/08/23 03:39:43;;;;;;;55.43;52.00;;;;;;;16.91;67.87;96623.00;5074869;28;20219;-59
2022/08/23 03:42:09;;;;;;;56.80;53.40;;;;;;;17.04;67.11;96625.06;5092328;28;20621;-59
2022/08/23 03:44:34;;;;;;;54.73;51.57;;;;;;;16.98;67.21;96629.59;5092616;28;20208;-54
2022/08/23 03:47:00;;;;;;;53.97;50.97;;;;;;;16.95;67.07;96618.72;5092391;28;20184;-57
2022/08/23 03:49:27;;;;;;;54.70;51.67;;;;;;;17.05;66.93;96624.00;5092363;28;20173;-56
2022/08/23 03:51:52;;;;;;;54.07;50.90;;;;;;;17.07;66.63;96626.38;5091057;28;20253;-58
2022/08/23 03:54:17;;;;;;;54.50;51.10;;;;;;;17.09;66.63;96638.28;5091792;28;20181;-58
2022/08/23 03:57:09;;;;;;;52.93;49.83;;;;;;;17.05;66.90;96630.06;5074316;28;20180;-57
2022/08/23 03:59:37;;;;;;;54.23;51.00;;;;;;;16.97;67.36;96635.16;5073848;28;20280;-58
2022/08/23 04:02:03;;;;;;;53.63;50.60;;;;;;;17.03;66.98;96642.03;5092021;28;20192;-58
2022/08/23 04:04:29;;;;;;;51.37;48.40;;;;;;;17.02;67.13;96640.44;5092231;28;20578;-58
2022/08/23 04:06:55;;;;;;;54.07;50.97;;;;;;;17.07;66.84;96634.31;5092042;28;20199;-58
2022/08/23 04:09:21;;;;;;;53.67;50.63;;;;;;;17.03;67.39;96645.47;5092266;28;20210;-57
2022/08/23 04:11:47;;;;;;;49.63;46.67;;;;;;;16.91;68.14;96650.25;5091841;28;20271;-57
2022/08/23 04:14:13;;;;;;;54.70;51.53;;;;;;;16.89;67.97;96647.09;5091946;28;20208;-53
2022/08/23 04:16:39;;;;;;;60.43;56.90;;;;;;;16.95;68.21;96648.66;5074241;28;20593;-55
2022/08/23 04:19:13;;;;;;;71.00;66.87;;;;;;;16.85;68.76;96656.63;5091899;28;20189;-57
2022/08/23 04:21:42;;;;;;;84.33;79.37;;;;;;;16.86;68.81;96647.63;5091955;28;20183;-53
2022/08/23 04:24:08;;;;;;;97.37;92.00;;;;;;;16.65;69.71;96648.75;5091617;28;20187;-56
2022/08/23 04:26:34;;;;;;;101.30;95.83;;;;;;;16.80;69.01;96651.34;5092063;28;20180;-56
2022/08/23 04:29:00;;;;;;;102.67;96.97;;;;;;;16.69;69.47;96657.75;5091890;28;20184;-57
2022/08/23 04:31:26;;;;;;;111.77;105.40;;;;;;;16.85;68.92;96653.19;5075615;28;20237;-56
2022/08/23 04:33:52;;;;;;;118.27;111.67;;;;;;;16.79;69.20;96655.06;5053995;28;20209;-52
2022/08/23 04:36:19;;;;;;;136.07;128.77;;;;;;;16.60;70.41;96659.34;5051819;28;20224;-54
2022/08/23 04:38:44;;;;;;;123.13;116.53;;;;;;;16.60;70.08;96668.09;5051921;28;20217;-56
2022/08/23 04:43:55;;;;;;;113.67;107.57;;;;;;;16.78;70.10;96682.59;5058585;28;20554;-57
2022/08/23 04:46:21;;;;;;;85.73;81.00;;;;;;;16.82;70.54;96677.56;5071795;28;20532;-58
2022/08/23 04:48:47;;;;;;;79.00;74.40;;;;;;;16.77;70.79;96688.97;5060233;28;20188;-57
2022/08/23 04:51:14;;;;;;;78.57;74.30;;;;;;;16.77;70.80;96691.63;5060977;28;20189;-56
2022/08/23 04:53:40;;;;;;;58.83;55.47;;;;;;;16.74;71.20;96688.69;5065779;28;20214;-55
2022/08/23 04:56:07;;;;;;;58.43;54.93;;;;;;;16.82;71.27;96685.50;5054678;28;20277;-57
2022/08/23 04:58:34;;;;;;;49.33;46.50;;;;;;;16.71;71.99;96691.88;5064034;28;20548;-55
2022/08/23 05:01:02;;;;;;;63.03;59.53;;;;;;;16.61;72.35;96695.31;5051901;28;20197;-58
2022/08/23 05:03:28;;;;;;;114.37;108.30;;;;;;;16.96;nan;96699.75;5051923;28;20225;-57
2022/08/23 05:05:54;;;;;;;130.33;123.10;;;;;;;17.15;70.42;96702.63;5059557;28;20531;-58
2022/08/23 05:08:19;;;;;;;65.10;61.20;;;;;;;17.44;68.72;96695.63;5075461;28;20256;-57
2022/08/23 05:10:46;;;;;;;96.57;91.27;;;;;;;17.47;68.33;96695.06;5075170;28;20525;-57
2022/08/23 05:13:12;;;;;;;102.17;96.50;;;;;;;17.54;68.06;96698.22;5074613;28;20201;-56
2022/08/23 05:15:37;;;;;;;74.43;70.30;;;;;;;17.54;68.13;96692.94;5072599;28;20264;-57
2022/08/23 05:18:03;;;;;;;49.43;46.67;;;;;;;17.95;66.54;96700.66;5055213;28;20646;-58
2022/08/23 05:20:30;;;;;;;20.87;19.50;;;;;;;17.77;67.39;96700.25;5064264;28;20196;-58
2022/08/23 05:22:55;;;;;;;30.50;28.60;;;;;;;18.08;66.13;96698.19;5062017;28;20209;-58
2022/08/23 05:25:21;;;;;;;37.33;34.92;;;;;;;18.27;65.50;96696.47;5054935;28;20225;-57
2022/08/23 05:27:46;;;;;;;44.58;41.92;;;;;;;18.35;65.65;96692.41;5055345;28;20209;-58
2022/08/23 05:30:12;;;;;;;40.20;37.80;;;;;;;18.65;64.70;96700.16;5054389;28;20190;-58
2022/08/23 05:32:39;;;;;;;36.33;34.25;;;;;;;18.83;63.95;96701.31;5063190;28;20225;-59
2022/08/23 05:35:05;;;;;;;37.28;35.10;;;;;;;19.05;63.43;96704.28;5055245;28;20232;-58
2022/08/23 05:37:32;;;;;;;31.10;29.20;;;;;;;18.87;64.36;96705.00;5055390;28;20178;-58
2022/08/23 05:39:57;;;;;;;20.23;19.00;;;;;;;18.92;64.17;96712.91;5059334;28;20564;-60
2022/08/23 05:42:23;;;;;;;24.73;23.33;;;;;;;18.77;65.33;96699.00;5067128;28;20190;-60
2022/08/23 05:44:48;;;;;;;37.75;35.50;;;;;;;19.15;64.21;96705.22;5054812;28;20178;-60
2022/08/23 05:47:15;;;;;;;52.88;49.58;;;;;;;19.09;64.37;96707.16;5069680;28;20178;-60
2022/08/23 05:49:41;;;;;;;63.40;58.97;;;;;;;19.43;63.08;96701.72;5058056;28;20226;-58
2022/08/23 05:52:10;;;;;;;42.35;39.70;;;;;;;19.52;62.98;96708.00;5087950;28;20201;-59
2022/08/23 05:54:36;;;;;;;37.30;34.70;;;;;;;19.49;62.98;96712.03;5054752;28;20197;-59
2022/08/23 05:57:03;;;;;;;41.33;38.72;;;;;;;19.86;61.51;96711.28;5067769;28;20542;-59
2022/08/23 05:59:28;;;;;;;42.38;39.95;;;;;;;19.68;61.82;96721.88;5055417;28;20197;-57
2022/08/23 06:01:55;;;;;;;41.63;39.28;;;;;;;19.76;61.46;96726.59;5074541;28;20661;-61
2022/08/23 06:04:20;;;;;;;35.47;33.17;;;;;;;19.93;61.43;96729.53;5075045;28;20184;-58
2022/08/23 06:06:47;;;;;;;43.22;40.55;;;;;;;20.19;60.48;96732.63;5074844;28;20174;-56
2022/08/23 06:09:14;;;;;;;56.75;53.47;;;;;;;20.12;60.94;96732.19;5071075;28;20177;-58
2022/08/23 06:11:41;;;;;;;62.38;58.63;;;;;;;20.34;60.52;96741.19;5074315;28;20180;-58
2022/08/23 06:14:08;;;;;;;102.80;97.05;;;;;;;20.55;59.95;96738.22;5074365;28;20646;-58
2022/08/23 06:16:44;;;;;;;99.40;93.93;;;;;;;20.48;60.52;96741.25;5057627;28;20185;-55
2022/08/23 06:19:10;;;;;;;62.75;59.13;;;;;;;20.64;60.70;96731.16;5060145;28;20256;-54
2022/08/23 06:21:37;;;;;;;48.33;45.60;;;;;;;20.84;60.18;96740.69;5054460;28;20247;-59
2022/08/23 06:24:03;;;;;;;55.72;51.67;;;;;;;20.84;60.31;96740.69;5054586;28;20235;-58
2022/08/23 06:26:32;;;;;;;67.43;63.03;;;;;;;20.94;59.69;96743.97;5054988;28;20182;-61
2022/08/23 06:29:04;;;;;;;98.47;93.15;;;;;;;20.55;60.44;96747.03;5055665;28;20227;-57
2022/08/23 06:31:48;;;;;;;86.30;81.53;;;;;;;20.77;59.69;96746.38;5066465;28;20236;-58
2022/08/23 06:34:23;;;;;;;78.72;74.25;;;;;;;20.78;59.45;96747.19;5054318;28;20275;-55
2022/08/23 06:36:54;;;;;;;86.35;81.68;;;;;;;21.01;58.67;96741.69;5054532;28;20173;-53
2022/08/23 06:39:23;;;;;;;93.45;88.32;;;;;;;20.90;58.95;96747.50;5066744;28;20550;-52
2022/08/23 06:41:49;;;;;;;80.30;75.95;;;;;;;20.98;58.72;96746.81;5072145;28;20590;-53
2022/08/23 06:44:16;;;;;;;49.35;46.30;;;;;;;21.01;57.75;96744.34;5069637;28;20193;-53
2022/08/23 06:46:42;;;;;;;40.80;38.33;;;;;;;21.07;57.26;96748.50;5068610;28;20163;-57
2022/08/23 06:49:08;;;;;;;36.67;34.30;;;;;;;21.41;55.95;96739.38;5061353;28;20180;-52
2022/08/23 06:51:37;;;;;;;29.23;27.52;;;;;;;21.49;56.64;96749.38;5061051;28;20260;-55
2022/08/23 06:54:07;;;;;;;27.88;26.17;;;;;;;21.33;57.46;96748.88;5054466;28;20190;-56
2022/08/23 06:56:34;;;;;;;31.02;29.17;;;;;;;21.57;57.20;96757.44;5070409;28;20169;-57
2022/08/23 06:59:03;;;;;;;30.48;28.60;;;;;;;21.40;57.51;96764.50;5053999;28;20181;-57
2022/08/23 07:01:49;;;;;;;30.27;28.48;;;;;;;21.55;56.95;96761.50;5057241;28;20184;-57
2022/08/23 07:04:18;;;;;;;29.02;27.23;;;;;;;21.80;56.44;96758.31;5054659;28;20165;-57
2022/08/23 07:06:44;;;;;;;33.55;31.23;;;;;;;21.67;56.72;96761.81;5058253;28;20242;-59
2022/08/23 07:09:10;;;;;;;27.90;26.10;;;;;;;21.85;56.68;96758.22;5071318;28;20177;-55
2022/08/23 07:11:35;;;;;;;26.92;25.27;;;;;;;21.92;56.41;96763.16;5073014;28;20177;-57
2022/08/23 07:14:05;;;;;;;31.73;29.90;;;;;;;22.03;55.89;96759.19;5069784;28;20190;-57
2022/08/23 07:16:33;;;;;;;30.77;28.80;;;;;;;22.16;54.96;96763.72;5072193;28;20169;-57
2022/08/23 07:18:59;;;;;;;30.08;28.25;;;;;;;22.29;55.03;96762.13;5060663;28;20687;-57
2022/08/23 07:21:24;;;;;;;25.02;23.40;;;;;;;22.37;55.17;96761.38;5052807;28;20186;-58
2022/08/23 07:23:50;;;;;;;17.05;15.75;;;;;;;22.52;54.97;96769.03;5052947;28;20255;-58
2022/08/23 07:26:17;;;;;;;19.48;17.83;;;;;;;22.59;54.73;96766.72;5052767;28;20174;-59
2022/08/23 07:28:43;;;;;;;31.70;29.80;;;;;;;22.75;53.98;96765.31;5059588;28;20209;-58
2022/08/23 07:31:12;;;;;;;39.95;37.28;;;;;;;22.86;54.17;96773.84;5078333;28;20311;-58
2022/08/23 07:33:38;;;;;;;81.93;77.43;;;;;;;22.77;54.12;96779.16;5092255;28;20261;-57
2022/08/23 07:36:05;;;;;;;112.22;106.10;;;;;;;22.96;54.00;96775.50;5092933;28;20164;-60
2022/08/23 07:38:32;;;;;;;128.27;121.25;;;;;;;23.12;52.57;96768.66;5093023;28;20172;-57
2022/08/23 07:40:57;;;;;;;158.63;149.93;;;;;;;23.11;53.47;96781.25;5092817;28;20224;-56
2022/08/23 07:43:23;;;;;;;137.38;129.80;;;;;;;23.06;53.97;96778.72;5092936;28;20652;-59
2022/08/23 07:45:48;;;;;;;119.47;112.57;;;;;;;23.35;52.87;96780.13;5092506;28;20184;-59
2022/08/23 07:48:14;;;;;;;64.30;60.80;;;;;;;23.21;52.57;96786.34;5092350;28;20173;-59
2022/08/23 07:50:40;;;;;;;118.72;112.47;;;;;;;23.28;51.25;96785.09;5073846;28;20184;-59
2022/08/23 07:53:06;;;;;;;97.57;92.25;;;;;;;23.36;51.40;96790.47;5091978;28;20196;-59
2022/08/23 07:55:33;;;;;;;85.07;80.20;;;;;;;23.37;51.08;96783.25;5084714;28;20169;-56
2022/08/23 07:57:59;;;;;;;119.20;112.57;;;;;;;23.65;49.79;96792.69;5092301;28;20172;-59
2022/08/23 08:00:25;;;;;;;114.88;108.90;;;;;;;23.67;49.39;96781.66;5092055;28;20309;-59
2022/08/23 08:02:50;;;;;;;100.18;94.57;;;;;;;23.79;49.63;96793.38;5092205;28;20196;-61
2022/08/23 08:05:16;;;;;;;147.27;139.07;;;;;;;23.78;49.54;96793.66;5091983;28;20177;-60
2022/08/23 08:07:42;;;;;;;108.93;102.95;;;;;;;23.90;49.30;96796.53;5092405;28;20244;-60
2022/08/23 08:10:08;;;;;;;87.28;82.43;;;;;;;24.03;49.76;96796.41;5092503;28;20172;-60
2022/08/23 08:12:34;;;;;;;108.50;102.30;;;;;;;24.08;48.98;96795.44;5091810;28;20196;-60
2022/08/23 08:15:00;;;;;;;89.57;84.60;;;;;;;24.12;49.49;96799.09;5092700;28;20574;-61
2022/08/23 08:17:26;;;;;;;370.10;348.45;;;;;;;24.13;47.78;96806.03;5092357;28;20171;-60
2022/08/23 08:19:51;;;;;;;324.55;305.90;;;;;;;23.99;49.15;96800.81;5092063;28;20180;-60
2022/08/23 08:22:17;;;;;;;468.30;440.58;;;;;;;24.31;47.98;96804.97;5091594;28;20196;-60
2022/08/23 08:24:45;;;;;;;427.67;402.70;;;;;;;24.17;48.38;96804.31;5092043;28;20189;-60
2022/08/23 08:27:10;;;;;;;422.17;397.88;;;;;;;23.93;48.76;96804.72;5089213;28;20228;-60
2022/08/23 08:29:36;;;;;;;413.88;390.17;;;;;;;23.96;49.16;96800.66;5092354;28;20659;-61
2022/08/23 08:32:02;;;;;;;501.67;472.25;;;;;;;23.94;48.04;96800.16;5065392;28;20225;-58
2022/08/23 08:34:28;;;;;;;497.63;468.75;;;;;;;24.29;47.82;96807.19;5070270;28;20184;-59
2022/08/23 08:36:57;;;;;;;473.35;446.05;;;;;;;24.31;48.63;96804.19;5053766;28;20169;-55
2022/08/23 08:39:25;;;;;;;291.13;274.80;;;;;;;24.47;47.03;96812.53;5059653;28;20635;-58
2022/08/23 08:41:56;;;;;;;150.65;142.43;;;;;;;24.30;46.25;96813.31;5066410;28;20188;-57
2022/08/23 08:44:39;;;;;;;86.28;81.55;;;;;;;24.45;43.99;96812.88;5069907;28;20227;-55
2022/08/23 08:47:44;;;;;;;97.57;92.45;;;;;;;24.61;44.33;96813.19;5053903;28;20645;-56
2022/08/23 08:50:31;;;;;;;62.20;58.63;;;;;;;24.43;44.37;96821.22;5059237;28;20181;-59
2022/08/23 08:53:10;;;;;;;150.05;142.50;;;;;;;24.79;44.33;96814.78;5070590;28;20635;-54
2022/08/23 08:55:41;;;;;;;122.05;115.53;;;;;;;25.02;44.29;96816.16;5059230;28;20185;-54
2022/08/23 08:58:16;;;;;;;69.10;65.35;;;;;;;25.05;43.58;96825.47;5059750;28;20189;-59
2022/08/23 09:00:42;;;;;;;77.25;72.93;;;;;;;24.96;43.99;96822.03;5052632;28;20662;-53
2022/08/23 09:03:20;;;;;;;31.75;29.98;;;;;;;25.18;42.98;96828.00;5055815;28;20193;-59
2022/08/23 09:06:20;;;;;;;40.40;38.05;;;;;;;25.20;43.16;96831.13;5053869;28;20170;-59
2022/08/23 09:09:10;;;;;;;37.28;35.08;;;;;;;25.37;43.04;96830.28;5051895;28;20173;-56
2022/08/23 09:11:44;;;;;;;22.00;20.70;;;;;;;25.38;42.94;96823.81;5051768;28;20189;-58
2022/08/23 09:14:15;;;;;;;20.13;18.88;;;;;;;25.36;44.01;96827.94;5059271;28;20288;-57
2022/08/23 09:16:52;;;;;;;31.60;29.85;;;;;;;24.81;44.18;96825.94;5062962;28;20185;-56
2022/08/23 09:19:19;;;;;;;46.90;44.25;;;;;;;24.42;43.39;96818.84;5057147;28;20702;-56
2022/08/23 09:22:12;;;;;;;59.72;56.55;;;;;;;25.05;42.82;96825.47;5051381;28;20205;-59
2022/08/23 09:24:39;;;;;;;97.38;91.95;;;;;;;24.53;43.59;96816.66;5058680;28;20189;-58
2022/08/23 09:27:08;;;;;;;79.40;75.35;;;;;;;24.66;43.29;96818.41;5067775;28;20254;-57
2022/08/23 09:29:35;;;;;;;106.53;100.95;;;;;;;25.12;42.98;96821.22;5067017;28;20319;-56
2022/08/23 09:32:05;;;;;;;354.55;336.23;;;;;;;25.09;41.40;96827.22;5084007;28;20224;-58
2022/08/23 09:34:36;;;;;;;373.05;354.02;;;;;;;25.30;40.88;96823.88;5091663;28;20180;-59
2022/08/23 09:37:08;;;;;;;247.57;234.50;;;;;;;25.31;40.47;96823.53;5091149;28;20180;-60
2022/08/23 09:39:36;;;;;;;292.88;277.92;;;;;;;25.40;40.15;96824.31;5091629;28;20171;-60
2022/08/23 09:42:02;;;;;;;302.38;286.27;;;;;;;24.78;41.93;96832.75;5091123;28;20204;-60
2022/08/23 09:44:36;;;;;;;310.58;293.45;;;;;;;24.82;38.67;96827.53;5091009;28;20169;-61
2022/08/23 09:47:15;;;;;;;273.85;259.27;;;;;;;24.36;41.83;96825.47;5093099;28;20656;-60
2022/08/23 09:49:47;;;;;;;540.90;510.75;;;;;;;24.04;42.31;96827.44;5089930;28;20220;-60
2022/08/23 09:52:33;;;;;;;393.45;372.48;;;;;;;24.36;41.26;96820.91;5092535;28;20231;-60
2022/08/23 09:55:03;;;;;;;330.33;313.50;;;;;;;24.48;43.41;96820.28;5094739;28;20175;-60
2022/08/23 09:57:31;;;;;;;339.67;321.50;;;;;;;24.72;40.22;96825.97;5094630;28;20252;-60
2022/08/23 10:00:16;;;;;;;544.90;515.08;;;;;;;24.69;40.56;96817.75;5094689;28;20538;-60
2022/08/23 10:02:42;;;;;;;551.75;521.03;;;;;;;25.01;40.71;96817.28;5094500;28;20556;-60
2022/08/23 10:05:19;;;;;;;468.30;443.20;;;;;;;25.05;40.07;96823.59;5094397;28;20177;-60
2022/08/23 10:07:53;;;;;;;305.60;288.77;;;;;;;25.19;39.45;96821.50;5094359;28;20190;-60
2022/08/23 10:10:50;;;;;;;250.88;237.38;;;;;;;25.20;39.96;96823.06;5094795;28;20531;-60
2022/08/23 10:13:16;;;;;;;250.88;237.15;;;;;;;25.41;38.88;96815.13;5069485;28;20209;-59
2022/08/23 10:15:51;;;;;;;224.00;212.13;;;;;;;25.42;39.80;96816.69;5094564;28;20214;-59
2022/08/23 10:18:38;;;;;;;249.35;235.48;;;;;;;25.47;38.67;96815.72;5094531;28;20517;-59
2022/08/23 10:21:21;;;;;;;265.70;250.98;;;;;;;25.53;38.87;96809.09;5094282;28;20173;-59
2022/08/23 10:24:14;;;;;;;237.30;223.77;;;;;;;25.32;38.75;96821.63;5094169;28;20197;-59
2022/08/23 10:26:54;;;;;;;211.32;198.82;;;;;;;25.10;38.54;96815.38;5083177;28;20273;-57
2022/08/23 10:29:47;;;;;;;276.48;261.45;;;;;;;24.76;38.98;96812.72;5090065;28;20245;-60
2022/08/23 10:32:37;;;;;;;469.33;443.13;;;;;;;25.27;37.66;96809.97;5088968;28;20246;-60
2022/08/23 10:35:25;;;;;;;391.58;370.50;;;;;;;25.59;37.62;96808.63;5093991;28;20183;-60
2022/08/23 10:38:31;;;;;;;348.60;328.83;;;;;;;25.77;36.96;96803.16;5094263;28;20521;-57
2022/08/23 10:41:19;;;;;;;176.75;166.75;;;;;;;25.13;37.54;96803.22;5093491;28;20567;-60
2022/08/23 10:44:26;;;;;;;374.67;353.60;;;;;;;25.39;37.34;96800.47;5094277;28;20295;-56
2022/08/23 10:46:59;;;;;;;334.15;315.33;;;;;;;25.57;37.49;96796.63;5102839;28;20164;-54
2022/08/23 10:49:27;;;;;;;146.02;137.82;;;;;;;25.63;36.82;96793.44;5087194;28;20192;-54
2022/08/23 10:51:54;;;;;;;120.00;113.22;;;;;;;25.81;36.55;96799.50;5092709;28;20192;-55
2022/08/23 10:54:34;;;;;;;240.13;225.73;;;;;;;25.85;35.54;96796.97;5093033;28;20209;-55
2022/08/23 10:57:05;;;;;;;300.08;281.55;;;;;;;25.92;35.74;96791.88;5093230;28;20203;-59
2022/08/23 10:59:33;;;;;;;378.38;355.25;;;;;;;25.90;35.51;96792.22;5093336;28;20173;-59
2022/08/23 11:02:08;;;;;;;256.15;240.68;;;;;;;25.94;34.57;96792.34;5075043;28;20215;-59
2022/08/23 11:05:05;;;;;;;269.73;253.65;;;;;;;25.61;36.03;96789.50;5093871;28;20179;-59
2022/08/23 11:07:41;;;;;;;418.60;393.92;;;;;;;25.21;36.66;96792.47;5089402;28;20238;-60
2022/08/23 11:10:16;;;;;;;462.88;434.63;;;;;;;25.14;36.46;96788.69;5086674;28;20581;-60
2022/08/23 11:12:53;;;;;;;422.02;397.25;;;;;;;25.63;37.02;96782.69;5093281;28;20196;-62
2022/08/23 11:15:26;;;;;;;436.83;410.63;;;;;;;25.75;35.90;96781.22;5093449;28;20175;-58
2022/08/23 11:17:56;;;;;;;524.35;492.10;;;;;;;25.60;36.35;96777.97;5093673;28;20242;-60
2022/08/23 11:20:50;;;;;;;451.48;423.42;;;;;;;25.65;36.38;96775.09;5093090;28;20188;-59
2022/08/23 11:23:39;;;;;;;496.13;465.83;;;;;;;25.11;36.85;96779.41;5092836;28;20217;-60
2022/08/23 11:26:09;;;;;;;507.45;476.48;;;;;;;25.14;37.38;96776.06;5026798;28;20341;-58
2022/08/23 11:28:45;;;;;;;542.05;508.58;;;;;;;25.28;36.89;96767.81;5075407;28;20262;-56
2022/08/23 11:31:10;;;;;;;467.00;438.85;;;;;;;25.63;36.68;96771.19;5074012;28;20592;-56
2022/08/23 11:33:45;;;;;;;524.38;492.55;;;;;;;25.97;35.65;96770.22;5072542;28;20235;-57